createdAt,value
2018-10-18T00:00:48.282Z,59.40
2018-10-18T00:03:22.176Z,59.25
2018-10-18T00:05:56.173Z,59.25
2018-10-18T00:08:30.134Z,58.96
2018-10-18T00:11:04.002Z,59.24
2018-10-18T00:13:37.888Z,59.34
2018-10-18T00:16:11.684Z,59.19
2018-10-18T00:18:45.593Z,59.02
2018-10-18T00:21:19.432Z,59.22
2018-10-18T00:23:53.363Z,59.36
2018-10-18T00:26:27.216Z,59.28
2018-10-18T00:29:01.112Z,59.24
2018-10-18T00:31:34.985Z,59.42
2018-10-18T00:34:08.869Z,59.09
2018-10-18T00:36:42.710Z,59.33
2018-10-18T00:39:16.723Z,59.19
2018-10-18T00:41:50.615Z,59.63
2018-10-18T00:44:24.459Z,59.70
2018-10-18T00:46:58.316Z,59.53
2018-10-18T00:49:32.219Z,59.22
2018-10-18T00:52:06.404Z,59.42
2018-10-18T00:54:40.267Z,59.61
2018-10-18T00:57:14.255Z,59.94
2018-10-18T00:59:48.196Z,59.91
2018-10-18T01:02:22.018Z,60.10
2018-10-18T01:04:56.028Z,59.84
2018-10-18T01:07:29.856Z,59.82
2018-10-18T01:10:03.933Z,60.19
2018-10-18T01:12:37.801Z,60.21
2018-10-18T01:15:11.700Z,59.66
2018-10-18T01:17:45.553Z,60.00
2018-10-18T01:20:19.549Z,60.02
2018-10-18T01:22:53.458Z,60.26
2018-10-18T01:25:27.405Z,60.31
2018-10-18T01:28:01.238Z,59.93
2018-10-18T01:30:35.239Z,60.37
2018-10-18T01:33:09.070Z,60.50
2018-10-18T01:35:43.023Z,60.55
2018-10-18T01:38:17.070Z,60.48
2018-10-18T01:40:51.965Z,60.81
2018-10-18T01:43:25.866Z,60.67
2018-10-18T01:45:59.841Z,60.66
2018-10-18T01:48:33.810Z,60.85
2018-10-18T01:51:07.751Z,60.95
2018-10-18T01:53:41.705Z,60.75
2018-10-18T01:56:15.852Z,60.50
2018-10-18T01:58:49.725Z,60.88
2018-10-18T02:01:23.693Z,61.07
2018-10-18T02:03:57.522Z,61.55
2018-10-18T02:06:31.400Z,61.23
2018-10-18T02:09:08.444Z,61.48
2018-10-18T02:11:42.908Z,61.48
2018-10-18T02:14:16.783Z,61.43
2018-10-18T02:16:50.707Z,61.29
2018-10-18T02:19:24.613Z,62.41
2018-10-18T02:21:58.721Z,62.70
2018-10-18T02:24:32.612Z,63.13
2018-10-18T02:27:06.636Z,63.51
2018-10-18T02:29:40.595Z,63.45
2018-10-18T02:32:14.477Z,63.23
2018-10-18T02:34:48.382Z,63.51
2018-10-18T02:37:22.265Z,63.51
2018-10-18T02:39:56.140Z,63.71
2018-10-18T02:42:30.063Z,63.04
2018-10-18T02:45:03.997Z,62.67
2018-10-18T02:47:37.936Z,63.19
2018-10-18T02:50:11.797Z,63.09
2018-10-18T02:52:45.763Z,63.61
2018-10-18T02:55:19.665Z,63.32
2018-10-18T02:57:53.526Z,63.29
2018-10-18T03:00:27.374Z,63.13
2018-10-18T03:03:01.285Z,63.04
2018-10-18T03:05:35.090Z,62.86
2018-10-18T03:08:08.968Z,62.48
2018-10-18T03:10:42.873Z,62.44
2018-10-18T03:13:16.739Z,62.25
2018-10-18T03:15:50.628Z,62.35
2018-10-18T03:18:24.521Z,62.95
2018-10-18T03:20:58.354Z,62.66
2018-10-18T03:23:32.617Z,62.80
2018-10-18T03:26:06.503Z,63.04
2018-10-18T03:28:40.470Z,63.19
2018-10-18T03:31:14.396Z,63.05
2018-10-18T03:33:49.319Z,62.55
2018-10-18T03:36:23.235Z,62.62
2018-10-18T03:38:57.168Z,63.07
2018-10-18T03:41:30.992Z,63.36
2018-10-18T03:44:05.262Z,62.97
2018-10-18T03:46:39.094Z,62.92
2018-10-18T03:49:13.023Z,62.78
2018-10-18T03:51:46.948Z,62.62
2018-10-18T03:54:20.908Z,62.62
2018-10-18T03:56:54.989Z,62.61
2018-10-18T03:59:28.897Z,62.55
2018-10-18T04:02:02.713Z,62.38
2018-10-18T04:04:36.646Z,62.53
2018-10-18T04:07:10.749Z,62.51
2018-10-18T04:09:44.640Z,62.97
2018-10-18T04:12:18.571Z,62.52
2018-10-18T04:14:52.395Z,62.70
2018-10-18T04:17:26.197Z,62.87
2018-10-18T04:20:00.153Z,62.69
2018-10-18T04:22:33.967Z,62.42
2018-10-18T04:25:08.253Z,62.53
2018-10-18T04:27:42.090Z,62.49
2018-10-18T04:30:16.002Z,62.14
2018-10-18T04:32:49.816Z,62.42
2018-10-18T04:35:23.687Z,62.17
2018-10-18T04:37:57.624Z,62.32
2018-10-18T04:40:31.497Z,61.85
2018-10-18T04:43:05.735Z,62.35
2018-10-18T04:45:39.699Z,61.90
2018-10-18T04:48:13.939Z,62.00
2018-10-18T04:50:47.772Z,61.90
2018-10-18T04:53:21.636Z,61.84
2018-10-18T04:55:56.068Z,62.19
2018-10-18T04:58:29.850Z,61.68
2018-10-18T05:01:03.782Z,61.66
2018-10-18T05:03:37.609Z,61.71
2018-10-18T05:06:11.516Z,61.59
2018-10-18T05:08:45.343Z,61.98
2018-10-18T05:11:19.243Z,61.64
2018-10-18T05:13:53.065Z,61.53
2018-10-18T05:16:26.935Z,61.45
2018-10-18T05:19:00.801Z,61.52
2018-10-18T05:21:34.658Z,61.51
2018-10-18T05:24:08.604Z,61.71
2018-10-18T05:26:42.520Z,61.53
2018-10-18T05:29:16.422Z,62.04
2018-10-18T05:31:50.472Z,61.68
2018-10-18T05:34:24.304Z,61.10
2018-10-18T05:36:58.304Z,61.14
2018-10-18T05:39:32.109Z,60.87
2018-10-18T05:42:06.046Z,60.78
2018-10-18T05:44:39.874Z,60.76
2018-10-18T05:47:13.951Z,60.83
2018-10-18T05:49:47.753Z,60.82
2018-10-18T05:52:21.749Z,60.64
2018-10-18T05:54:55.811Z,61.09
2018-10-18T05:57:29.685Z,60.36
2018-10-18T06:00:03.716Z,60.44
2018-10-18T06:02:37.856Z,60.29
2018-10-18T06:05:13.132Z,60.55
2018-10-18T06:07:47.222Z,60.77
2018-10-18T06:10:32.281Z,60.27
2018-10-18T06:13:06.228Z,60.33
2018-10-18T06:15:40.131Z,60.73
2018-10-18T06:18:14.124Z,60.57
2018-10-18T06:20:48.025Z,60.72
2018-10-18T06:23:22.037Z,60.89
2018-10-18T06:25:55.972Z,60.69
2018-10-18T06:28:29.953Z,60.47
2018-10-18T06:31:03.984Z,60.57
2018-10-18T06:33:37.953Z,60.80
2018-10-18T06:36:12.094Z,60.40
2018-10-18T06:38:45.987Z,60.31
2018-10-18T06:41:19.869Z,60.28
2018-10-18T06:43:53.767Z,60.43
2018-10-18T06:46:27.651Z,60.45
2018-10-18T06:49:01.659Z,60.60
2018-10-18T06:51:35.494Z,60.61
2018-10-18T06:54:09.648Z,60.90
2018-10-18T06:56:43.516Z,60.41
2018-10-18T06:59:17.426Z,60.53
2018-10-18T07:01:51.320Z,60.32
2018-10-18T07:04:25.197Z,60.49
2018-10-18T07:06:59.107Z,60.47
2018-10-18T07:09:33.165Z,61.09
2018-10-18T07:12:07.466Z,60.79
2018-10-18T07:14:41.318Z,61.22
2018-10-18T07:17:15.604Z,60.91
2018-10-18T07:19:50.034Z,60.99
2018-10-18T07:22:23.930Z,61.08
2018-10-18T07:24:57.847Z,60.71
2018-10-18T07:27:31.833Z,61.08
2018-10-18T07:30:07.413Z,61.03
2018-10-18T07:32:41.339Z,60.78
2018-10-18T07:35:15.521Z,60.81
2018-10-18T07:37:49.612Z,60.92
2018-10-18T07:40:23.552Z,60.68
2018-10-18T07:42:57.444Z,60.83
2018-10-18T07:45:31.424Z,60.84
2018-10-18T07:48:05.704Z,60.50
2018-10-18T07:50:39.590Z,60.49
2018-10-18T07:53:13.631Z,60.35
2018-10-18T07:55:47.691Z,60.52
2018-10-18T07:58:21.565Z,59.99
2018-10-18T08:00:55.592Z,59.90
2018-10-18T08:03:31.063Z,60.56
2018-10-18T08:06:05.188Z,60.04
2018-10-18T08:08:39.065Z,60.00
2018-10-18T08:11:13.639Z,59.64
2018-10-18T08:13:47.541Z,59.71
2018-10-18T08:16:21.480Z,59.37
2018-10-18T08:18:55.402Z,59.33
2018-10-18T08:21:29.337Z,59.50
2018-10-18T08:24:03.255Z,59.43
2018-10-18T08:26:37.229Z,59.01
2018-10-18T08:29:11.125Z,58.87
2018-10-18T08:31:45.165Z,58.74
2018-10-18T08:34:19.465Z,58.19
2018-10-18T08:36:53.614Z,57.93
2018-10-18T08:39:27.512Z,57.36
2018-10-18T08:42:01.481Z,57.12
2018-10-18T08:44:35.509Z,56.39
2018-10-18T08:47:09.528Z,56.59
2018-10-18T08:49:43.514Z,56.35
2018-10-18T08:52:17.450Z,56.32
2018-10-18T08:54:51.330Z,55.74
2018-10-18T08:57:25.258Z,55.53
2018-10-18T08:59:59.137Z,55.89
2018-10-18T09:02:33.103Z,55.49
2018-10-18T09:05:07.482Z,55.63
2018-10-18T09:07:41.421Z,55.53
2018-10-18T09:10:15.456Z,55.04
2018-10-18T09:12:49.369Z,55.12
2018-10-18T09:15:23.257Z,55.02
2018-10-18T09:17:57.298Z,54.72
2018-10-18T09:20:31.213Z,54.93
2018-10-18T09:23:05.311Z,54.11
2018-10-18T09:25:39.144Z,54.97
2018-10-18T09:28:13.036Z,55.09
2018-10-18T09:30:46.896Z,54.80
2018-10-18T09:33:20.878Z,54.71
2018-10-18T09:35:54.713Z,54.86
2018-10-18T09:38:28.640Z,54.53
2018-10-18T09:41:02.572Z,54.88
2018-10-18T09:43:36.492Z,55.05
2018-10-18T09:46:10.387Z,55.69
2018-10-18T09:48:44.318Z,55.20
2018-10-18T09:51:18.173Z,55.04
2018-10-18T09:53:52.111Z,54.89
2018-10-18T09:56:26.116Z,54.98
2018-10-18T09:59:00.013Z,54.78
2018-10-18T10:01:39.006Z,54.47
2018-10-18T10:04:12.948Z,54.37
2018-10-18T10:06:46.821Z,54.60
2018-10-18T10:09:20.801Z,53.95
2018-10-18T10:11:54.652Z,53.89
2018-10-18T10:14:28.654Z,54.09
2018-10-18T10:17:02.566Z,54.49
2018-10-18T10:19:36.491Z,53.26
2018-10-18T10:22:10.378Z,53.21
2018-10-18T10:24:44.339Z,52.49
2018-10-18T10:27:18.236Z,52.42
2018-10-18T10:29:52.125Z,52.16
2018-10-18T10:32:26.000Z,52.17
2018-10-18T10:34:59.922Z,51.96
2018-10-18T10:37:33.866Z,51.76
2018-10-18T10:40:09.140Z,51.41
2018-10-18T10:42:43.261Z,51.27
2018-10-18T10:45:17.442Z,51.57
2018-10-18T10:47:52.078Z,50.95
2018-10-18T10:50:25.999Z,50.36
2018-10-18T10:52:59.845Z,50.95
2018-10-18T10:55:33.744Z,49.81
2018-10-18T10:58:07.914Z,49.47
2018-10-18T11:01:15.783Z,49.76
2018-10-18T11:03:51.146Z,49.17
2018-10-18T11:06:25.290Z,48.98
2018-10-18T11:08:59.172Z,49.17
2018-10-18T11:11:33.064Z,49.64
2018-10-18T11:14:07.033Z,49.79
2018-10-18T11:16:40.970Z,49.65
2018-10-18T11:19:15.870Z,49.39
2018-10-18T11:21:49.972Z,49.57
2018-10-18T11:24:23.797Z,49.60
2018-10-18T11:26:57.811Z,50.08
2018-10-18T11:29:31.683Z,50.17
2018-10-18T11:32:05.891Z,50.26
2018-10-18T11:34:39.802Z,49.84
2018-10-18T11:37:13.750Z,49.70
2018-10-18T11:39:47.635Z,49.51
2018-10-18T11:42:21.805Z,48.96
2018-10-18T11:44:55.588Z,47.78
2018-10-18T11:47:29.596Z,46.96
2018-10-18T11:50:03.480Z,46.25
2018-10-18T11:52:37.483Z,45.50
2018-10-18T11:55:11.441Z,46.21
2018-10-18T11:57:45.638Z,46.35
2018-10-18T12:00:20.144Z,46.64
2018-10-18T12:02:54.140Z,47.11
2018-10-18T12:05:28.077Z,47.57
2018-10-18T12:08:02.114Z,47.89
2018-10-18T12:10:35.988Z,47.83
2018-10-18T12:13:09.993Z,47.81
2018-10-18T12:15:43.867Z,47.23
2018-10-18T12:18:17.764Z,47.69
2018-10-18T12:20:51.645Z,47.90
2018-10-18T12:23:25.531Z,47.85
2018-10-18T12:25:59.399Z,48.22
2018-10-18T12:28:33.341Z,47.89
2018-10-18T12:31:07.320Z,47.80
2018-10-18T12:33:41.200Z,47.73
2018-10-18T12:36:15.091Z,47.67
2018-10-18T12:38:49.085Z,47.43
2018-10-18T12:41:25.321Z,47.28
2018-10-18T12:43:59.252Z,47.12
2018-10-18T12:46:33.136Z,48.19
2018-10-18T12:49:07.090Z,46.73
2018-10-18T12:51:41.030Z,47.14
2018-10-18T12:54:15.031Z,47.46
2018-10-18T12:56:48.988Z,47.10
2018-10-18T12:59:23.430Z,46.75
2018-10-18T13:01:57.426Z,46.62
2018-10-18T13:04:31.352Z,46.73
2018-10-18T13:07:05.539Z,46.67
2018-10-18T13:09:39.529Z,46.96
2018-10-18T13:12:13.554Z,47.00
2018-10-18T13:14:47.643Z,46.91
2018-10-18T13:18:08.602Z,47.24
2018-10-18T13:20:43.685Z,47.37
2018-10-18T13:23:17.621Z,47.67
2018-10-18T13:25:53.574Z,47.46
2018-10-18T13:29:07.884Z,47.32
2018-10-18T13:31:42.568Z,47.07
2018-10-18T13:34:16.537Z,47.85
2018-10-18T13:36:50.477Z,47.23
2018-10-18T13:39:24.420Z,47.95
2018-10-18T13:41:58.449Z,48.07
2018-10-18T13:44:32.349Z,48.48
2018-10-18T13:47:06.462Z,47.97
2018-10-18T13:49:40.374Z,48.27
2018-10-18T13:52:14.324Z,48.35
2018-10-18T13:54:48.213Z,48.53
2018-10-18T13:57:22.292Z,48.94
2018-10-18T14:00:28.684Z,48.82
2018-10-18T14:03:02.676Z,48.70
2018-10-18T14:05:36.678Z,49.19
2018-10-18T14:08:10.708Z,49.25
2018-10-18T14:10:44.561Z,48.66
2018-10-18T14:13:18.496Z,49.32
2018-10-18T14:15:52.384Z,49.22
2018-10-18T14:18:26.293Z,48.88
2018-10-18T14:21:00.198Z,49.38
2018-10-18T14:23:34.242Z,49.62
2018-10-18T14:26:08.270Z,49.47
2018-10-18T14:28:42.067Z,50.74
2018-10-18T14:31:16.133Z,51.23
2018-10-18T14:33:50.153Z,51.11
2018-10-18T14:36:24.039Z,51.75
2018-10-18T14:38:58.342Z,52.18
2018-10-18T14:41:32.237Z,52.04
2018-10-18T14:44:06.540Z,52.51
2018-10-18T14:46:40.425Z,52.58
2018-10-18T14:49:14.310Z,52.90
2018-10-18T14:51:48.210Z,53.21
2018-10-18T14:54:22.153Z,53.94
2018-10-18T14:56:56.015Z,53.95
2018-10-18T14:59:30.077Z,54.23
2018-10-18T15:02:04.173Z,54.23
2018-10-18T15:04:38.432Z,54.39
2018-10-18T15:07:12.244Z,54.33
2018-10-18T15:09:46.181Z,54.76
2018-10-18T15:12:20.059Z,54.59
2018-10-18T15:14:53.989Z,55.12
2018-10-18T15:17:27.851Z,55.11
2018-10-18T15:20:03.839Z,55.15
2018-10-18T15:22:47.189Z,55.01
2018-10-18T15:25:21.373Z,55.32
2018-10-18T15:27:55.207Z,55.21
2018-10-18T15:30:29.152Z,54.92
2018-10-18T15:33:03.101Z,55.04
2018-10-18T15:35:37.029Z,55.03
2018-10-18T15:38:11.116Z,55.33
2018-10-18T15:40:44.979Z,56.96
2018-10-18T15:43:19.068Z,57.18
2018-10-18T15:45:52.957Z,58.16
2018-10-18T15:48:26.970Z,57.79
2018-10-18T15:51:03.129Z,58.31
2018-10-18T15:53:37.237Z,58.71
2018-10-18T15:56:23.895Z,58.64
2018-10-18T15:58:57.949Z,59.34
2018-10-18T16:01:32.050Z,58.99
2018-10-18T16:04:06.868Z,59.39
2018-10-18T16:06:41.269Z,60.30
2018-10-18T16:09:15.793Z,59.95
2018-10-18T16:11:50.946Z,60.26
2018-10-18T16:14:24.908Z,60.11
2018-10-18T16:16:59.002Z,60.63
2018-10-18T16:19:33.072Z,60.55
2018-10-18T16:22:07.368Z,60.70
2018-10-18T16:24:41.384Z,60.86
2018-10-18T16:27:16.436Z,60.89
2018-10-18T16:29:50.629Z,60.75
2018-10-18T16:32:24.615Z,60.98
2018-10-18T16:34:59.115Z,60.44
2018-10-18T16:37:33.188Z,60.92
2018-10-18T16:40:07.622Z,61.09
2018-10-18T16:42:41.779Z,60.57
2018-10-18T16:45:15.675Z,60.70
2018-10-18T16:47:49.664Z,60.58
2018-10-18T16:50:23.651Z,60.28
2018-10-18T16:52:57.629Z,60.25
2018-10-18T16:55:31.580Z,60.02
2018-10-18T16:58:05.694Z,60.06
2018-10-18T17:00:39.536Z,60.30
2018-10-18T17:03:13.554Z,60.17
2018-10-18T17:05:47.554Z,60.26
2018-10-18T17:08:21.572Z,60.39
2018-10-18T17:10:56.323Z,60.19
2018-10-18T17:13:30.280Z,60.21
2018-10-18T17:16:04.277Z,60.07
2018-10-18T17:18:38.485Z,60.39
2018-10-18T17:21:12.514Z,59.76
2018-10-18T17:23:46.606Z,59.84
2018-10-18T17:26:20.618Z,59.91
2018-10-18T17:28:54.535Z,59.65
2018-10-18T17:31:28.845Z,59.90
2018-10-18T17:34:02.929Z,59.74
2018-10-18T17:36:36.811Z,59.87
2018-10-18T17:39:11.573Z,59.42
2018-10-18T17:41:45.471Z,59.39
2018-10-18T17:44:19.374Z,59.12
2018-10-18T17:46:53.334Z,59.00
2018-10-18T17:49:27.516Z,59.15
2018-10-18T17:52:02.116Z,59.13
2018-10-18T17:54:36.046Z,58.84
2018-10-18T17:57:10.173Z,59.03
2018-10-18T17:59:44.205Z,59.01
2018-10-18T18:02:18.341Z,59.06
2018-10-18T18:04:53.947Z,59.07
2018-10-18T18:07:28.108Z,59.10
2018-10-18T18:10:02.387Z,58.79
2018-10-18T18:12:36.556Z,58.80
2018-10-18T18:15:10.965Z,59.10
2018-10-18T18:17:44.884Z,59.14
2018-10-18T18:20:18.796Z,58.88
2018-10-18T18:22:53.002Z,59.07
2018-10-18T18:25:26.920Z,59.27
2018-10-18T18:28:00.749Z,58.94
2018-10-18T18:30:34.657Z,59.46
2018-10-18T18:33:08.537Z,59.10
2018-10-18T18:35:42.461Z,59.58
2018-10-18T18:38:16.296Z,59.71
2018-10-18T18:40:50.216Z,59.58
2018-10-18T18:43:24.108Z,59.29
2018-10-18T18:45:58.113Z,59.26
2018-10-18T18:48:31.952Z,58.99
2018-10-18T18:51:05.934Z,59.22
2018-10-18T18:53:39.784Z,58.73
2018-10-18T18:56:13.768Z,58.65
2018-10-18T18:58:47.611Z,58.90
2018-10-18T19:01:21.770Z,59.43
2018-10-18T19:03:55.650Z,59.08
2018-10-18T19:06:29.565Z,59.28
2018-10-18T19:09:03.655Z,59.39
2018-10-18T19:11:38.498Z,59.20
2018-10-18T19:14:12.461Z,59.39
2018-10-18T19:16:46.511Z,59.16
2018-10-18T19:19:20.352Z,59.19
2018-10-18T19:21:54.358Z,59.24
2018-10-18T19:24:28.218Z,59.36
2018-10-18T19:27:02.312Z,59.26
2018-10-18T19:29:36.273Z,59.23
2018-10-18T19:32:10.324Z,59.13
2018-10-18T19:34:44.476Z,59.15
2018-10-18T19:37:18.473Z,59.45
2018-10-18T19:39:52.367Z,59.37
2018-10-18T19:42:26.323Z,59.27
2018-10-18T19:45:00.221Z,59.04
2018-10-18T19:47:34.115Z,59.26
2018-10-18T19:50:09.017Z,59.28
2018-10-18T19:52:42.946Z,59.30
2018-10-18T19:55:16.750Z,59.18
2018-10-18T19:57:50.660Z,59.39
2018-10-18T20:00:24.517Z,59.27
2018-10-18T20:02:58.406Z,58.96
2018-10-18T20:05:32.232Z,59.11
2018-10-18T20:08:06.194Z,59.14
2018-10-18T20:10:39.975Z,59.17
2018-10-18T20:13:13.830Z,59.31
2018-10-18T20:15:47.834Z,59.04
2018-10-18T20:18:21.843Z,59.28
2018-10-18T20:20:55.627Z,59.21
2018-10-18T20:23:30.085Z,59.13
2018-10-18T20:26:04.206Z,59.61
2018-10-18T20:28:37.964Z,59.47
2018-10-18T20:31:11.855Z,59.42
2018-10-18T20:33:45.696Z,59.29
2018-10-18T20:36:19.550Z,59.27
2018-10-18T20:38:53.472Z,59.56
2018-10-18T20:41:28.025Z,59.46
2018-10-18T20:44:01.894Z,59.57
2018-10-18T20:46:35.814Z,59.41
2018-10-18T20:49:09.673Z,59.43
2018-10-18T20:51:46.473Z,59.21
2018-10-18T20:54:20.435Z,59.04
2018-10-18T20:56:54.255Z,59.26
2018-10-18T20:59:28.142Z,59.11
2018-10-18T21:02:03.060Z,59.14
2018-10-18T21:04:36.910Z,58.99
2018-10-18T21:07:10.702Z,59.12
2018-10-18T21:09:44.560Z,59.38
2018-10-18T21:12:18.407Z,59.29
2018-10-18T21:14:52.364Z,59.17
2018-10-18T21:17:26.204Z,59.24
2018-10-18T21:20:00.153Z,59.27
2018-10-18T21:22:34.005Z,59.42
2018-10-18T21:25:08.108Z,59.31
2018-10-18T21:27:41.981Z,59.38
2018-10-18T21:30:15.958Z,59.28
2018-10-18T21:32:49.795Z,59.66
2018-10-18T21:35:23.681Z,59.56
2018-10-18T21:37:57.619Z,59.63
2018-10-18T21:40:31.508Z,59.37
2018-10-18T21:43:05.495Z,59.17
2018-10-18T21:45:39.465Z,59.44
2018-10-18T21:48:13.424Z,59.39
2018-10-18T21:50:47.306Z,59.41
2018-10-18T21:53:21.161Z,59.09
2018-10-18T21:55:55.136Z,59.41
2018-10-18T21:58:28.954Z,59.14
2018-10-18T22:01:03.136Z,59.27
2018-10-18T22:03:36.999Z,59.35
2018-10-18T22:06:10.878Z,59.28
2018-10-18T22:08:44.726Z,59.16
2018-10-18T22:11:18.681Z,59.40
2018-10-18T22:13:52.521Z,59.35
2018-10-18T22:16:26.411Z,59.23
2018-10-18T22:19:00.289Z,59.13
2018-10-18T22:21:34.128Z,59.17
2018-10-18T22:24:09.204Z,59.11
2018-10-18T22:26:43.053Z,59.29
2018-10-18T22:29:16.968Z,59.23
2018-10-18T22:31:50.875Z,59.04
2018-10-18T22:34:24.705Z,59.13
2018-10-18T22:36:58.626Z,59.17
2018-10-18T22:39:32.547Z,59.19
2018-10-18T22:42:06.762Z,59.18
2018-10-18T22:44:40.706Z,59.16
2018-10-18T22:47:14.745Z,59.30
2018-10-18T22:49:48.608Z,59.10
2018-10-18T22:52:22.545Z,59.10
2018-10-18T22:54:56.494Z,59.18
2018-10-18T22:57:30.493Z,59.21
2018-10-18T23:00:04.702Z,59.28
2018-10-18T23:02:38.775Z,59.18
2018-10-18T23:05:12.706Z,59.17
2018-10-18T23:07:46.629Z,59.17
2018-10-18T23:10:20.518Z,59.01
2018-10-18T23:12:54.369Z,59.08
2018-10-18T23:15:28.213Z,59.00
2018-10-18T23:18:02.097Z,58.98
2018-10-18T23:20:35.938Z,58.88
2018-10-18T23:23:10.508Z,58.93
2018-10-18T23:25:44.376Z,59.07
2018-10-18T23:28:18.347Z,58.88
2018-10-18T23:30:52.160Z,59.08
2018-10-18T23:33:26.077Z,59.09
2018-10-18T23:35:59.909Z,58.93
2018-10-18T23:38:33.797Z,59.15
2018-10-18T23:41:07.922Z,59.13
2018-10-18T23:43:41.813Z,58.98
2018-10-18T23:46:15.678Z,58.88
2018-10-18T23:48:49.523Z,58.93
2018-10-18T23:51:23.349Z,58.85
2018-10-18T23:53:57.238Z,58.92
2018-10-18T23:56:31.143Z,58.88
2018-10-18T23:59:05.131Z,58.86
